sensor_id;sensor_type;location;lat;lon;timestamp;pressure;altitude;pressure_sealevel;temperature;humidity
72921;BME280;61064;51.654;5.476;2023-03-16T00:01:18;101798.44;;;4.74;66.61
72921;BME280;61064;51.654;5.476;2023-03-16T00:03:43;101713.84;;;4.30;66.76
72921;BME280;61064;51.654;5.476;2023-03-16T00:06:10;101805.94;;;4.84;66.62
72921;BME280;61064;51.654;5.476;2023-03-16T00:08:37;101823.00;;;4.92;66.99
72921;BME280;61064;51.654;5.476;2023-03-16T00:11:03;101815.88;;;4.90;66.91
72921;BME280;61064;51.654;5.476;2023-03-16T00:13:29;101828.66;;;5.01;67.26
72921;BME280;61064;51.654;5.476;2023-03-16T00:15:57;101839.44;;;5.06;67.28
72921;BME280;61064;51.654;5.476;2023-03-16T00:18:25;101835.91;;;5.06;67.24
72921;BME280;61064;51.654;5.476;2023-03-16T00:20:57;101811.53;;;4.92;67.57
72921;BME280;61064;51.654;5.476;2023-03-16T00:23:23;101795.41;;;4.84;67.42
72921;BME280;61064;51.654;5.476;2023-03-16T00:25:55;101838.66;;;5.09;67.52
72921;BME280;61064;51.654;5.476;2023-03-16T00:28:23;101798.34;;;4.92;67.32
72921;BME280;61064;51.654;5.476;2023-03-16T00:30:48;101826.47;;;5.11;67.47
72921;BME280;61064;51.654;5.476;2023-03-16T00:33:14;101827.38;;;5.11;67.53
72921;BME280;61064;51.654;5.476;2023-03-16T00:35:39;101803.09;;;4.99;67.76
72921;BME280;61064;51.654;5.476;2023-03-16T00:38:18;101810.28;;;5.03;68.09
72921;BME280;61064;51.654;5.476;2023-03-16T00:40:44;101788.91;;;4.97;67.62
72921;BME280;61064;51.654;5.476;2023-03-16T00:43:09;101806.19;;;5.10;67.75
72921;BME280;61064;51.654;5.476;2023-03-16T00:45:35;101789.91;;;4.99;68.05
72921;BME280;61064;51.654;5.476;2023-03-16T00:48:01;101764.72;;;4.86;68.06
72921;BME280;61064;51.654;5.476;2023-03-16T00:50:26;101747.88;;;4.83;67.78
72921;BME280;61064;51.654;5.476;2023-03-16T00:52:52;101773.25;;;5.00;68.25
72921;BME280;61064;51.654;5.476;2023-03-16T00:55:18;101776.91;;;5.03;68.17
72921;BME280;61064;51.654;5.476;2023-03-16T00:57:43;101781.47;;;5.08;68.19
72921;BME280;61064;51.654;5.476;2023-03-16T01:00:09;101772.47;;;5.02;68.31
72921;BME280;61064;51.654;5.476;2023-03-16T01:02:37;101768.88;;;5.00;68.52
72921;BME280;61064;51.654;5.476;2023-03-16T01:05:02;101777.88;;;5.06;68.53
72921;BME280;61064;51.654;5.476;2023-03-16T01:07:30;101754.00;;;5.02;68.34
72921;BME280;61064;51.654;5.476;2023-03-16T01:09:55;101771.59;;;5.23;68.56
72921;BME280;61064;51.654;5.476;2023-03-16T01:12:21;101747.19;;;5.08;68.44
72921;BME280;61064;51.654;5.476;2023-03-16T01:14:46;101761.53;;;5.14;68.84
72921;BME280;61064;51.654;5.476;2023-03-16T01:17:12;101764.59;;;5.23;68.64
72921;BME280;61064;51.654;5.476;2023-03-16T01:19:39;101763.69;;;5.23;68.54
72921;BME280;61064;51.654;5.476;2023-03-16T01:22:07;101756.59;;;5.22;68.69
72921;BME280;61064;51.654;5.476;2023-03-16T01:24:34;101703.38;;;4.90;68.79
72921;BME280;61064;51.654;5.476;2023-03-16T01:27:00;101681.97;;;4.83;68.88
72921;BME280;61064;51.654;5.476;2023-03-16T01:29:25;101713.34;;;4.97;68.88
72921;BME280;61064;51.654;5.476;2023-03-16T01:31:50;101726.69;;;5.00;68.97
72921;BME280;61064;51.654;5.476;2023-03-16T01:34:16;101748.63;;;5.20;69.21
72921;BME280;61064;51.654;5.476;2023-03-16T01:36:43;101739.78;;;5.20;69.33
72921;BME280;61064;51.654;5.476;2023-03-16T01:39:12;101733.09;;;5.07;69.27
72921;BME280;61064;51.654;5.476;2023-03-16T01:41:38;101709.97;;;5.00;69.21
72921;BME280;61064;51.654;5.476;2023-03-16T01:44:05;101744.16;;;5.19;69.15
72921;BME280;61064;51.654;5.476;2023-03-16T01:46:31;101716.88;;;4.98;69.41
72921;BME280;61064;51.654;5.476;2023-03-16T01:49:03;101734.47;;;5.18;69.49
72921;BME280;61064;51.654;5.476;2023-03-16T01:51:36;101676.88;;;4.87;69.64
72921;BME280;61064;51.654;5.476;2023-03-16T01:56:38;101739.78;;;5.20;69.47
72921;BME280;61064;51.654;5.476;2023-03-16T01:59:08;101736.31;;;5.21;69.80
72921;BME280;61064;51.654;5.476;2023-03-16T02:01:36;101740.69;;;5.20;69.48
72921;BME280;61064;51.654;5.476;2023-03-16T02:04:11;101689.63;;;4.97;69.60
72921;BME280;61064;51.654;5.476;2023-03-16T02:06:38;101690.59;;;4.99;69.77
72921;BME280;61064;51.654;5.476;2023-03-16T02:09:05;101718.66;;;5.18;69.46
72921;BME280;61064;51.654;5.476;2023-03-16T02:11:32;101714.06;;;5.14;69.51
72921;BME280;61064;51.654;5.476;2023-03-16T02:14:02;101635.53;;;4.66;69.95
72921;BME280;61064;51.654;5.476;2023-03-16T02:16:30;101683.78;;;5.05;70.00
72921;BME280;61064;51.654;5.476;2023-03-16T02:18:56;101592.75;;;4.52;69.77
72921;BME280;61064;51.654;5.476;2023-03-16T02:24:21;101557.88;;;4.37;69.97
72921;BME280;61064;51.654;5.476;2023-03-16T02:26:55;101702.75;;;5.17;69.92
72921;BME280;61064;51.654;5.476;2023-03-16T02:31:55;101708.03;;;5.17;70.06
72921;BME280;61064;51.654;5.476;2023-03-16T02:34:22;101686.47;;;5.06;70.32
72921;BME280;61064;51.654;5.476;2023-03-16T02:36:49;101707.19;;;5.18;70.46
72921;BME280;61064;51.654;5.476;2023-03-16T02:39:16;101659.41;;;4.89;70.44
72921;BME280;61064;51.654;5.476;2023-03-16T02:41:42;101702.69;;;5.15;70.46
72921;BME280;61064;51.654;5.476;2023-03-16T02:44:19;101643.19;;;4.80;70.88
72921;BME280;61064;51.654;5.476;2023-03-16T02:46:48;101707.88;;;5.14;70.69
72921;BME280;61064;51.654;5.476;2023-03-16T02:49:39;101672.78;;;4.94;71.13
72921;BME280;61064;51.654;5.476;2023-03-16T02:52:07;101668.34;;;4.93;71.16
72921;BME280;61064;51.654;5.476;2023-03-16T02:54:33;101688.91;;;5.01;71.28
72921;BME280;61064;51.654;5.476;2023-03-16T02:56:58;101668.16;;;4.88;71.36
72921;BME280;61064;51.654;5.476;2023-03-16T02:59:23;101699.72;;;5.08;71.25
72921;BME280;61064;51.654;5.476;2023-03-16T03:01:49;101673.53;;;4.91;71.35
72921;BME280;61064;51.654;5.476;2023-03-16T03:04:16;101689.16;;;5.08;71.46
72921;BME280;61064;51.654;5.476;2023-03-16T03:06:41;101667.34;;;4.91;71.37
72921;BME280;61064;51.654;5.476;2023-03-16T03:09:07;101666.59;;;4.93;71.49
72921;BME280;61064;51.654;5.476;2023-03-16T03:11:32;101676.34;;;4.96;71.78
72921;BME280;61064;51.654;5.476;2023-03-16T03:13:57;101667.34;;;4.91;71.71
72921;BME280;61064;51.654;5.476;2023-03-16T03:16:23;101665.63;;;4.91;72.02
72921;BME280;61064;51.654;5.476;2023-03-16T03:18:49;101683.84;;;5.06;72.26
72921;BME280;61064;51.654;5.476;2023-03-16T03:21:16;101687.38;;;5.07;72.09
72921;BME280;61064;51.654;5.476;2023-03-16T03:23:42;101631.88;;;4.83;72.18
72921;BME280;61064;51.654;5.476;2023-03-16T03:26:10;101659.78;;;4.98;71.89
72921;BME280;61064;51.654;5.476;2023-03-16T03:28:36;101631.94;;;4.84;71.95
72921;BME280;61064;51.654;5.476;2023-03-16T03:31:01;101670.69;;;5.08;72.40
72921;BME280;61064;51.654;5.476;2023-03-16T03:33:27;101549.00;;;4.35;72.26
72921;BME280;61064;51.654;5.476;2023-03-16T03:35:56;101626.72;;;4.86;72.35
72921;BME280;61064;51.654;5.476;2023-03-16T03:38:23;101654.88;;;5.08;72.23
72921;BME280;61064;51.654;5.476;2023-03-16T03:40:53;101652.78;;;4.99;72.50
72921;BME280;61064;51.654;5.476;2023-03-16T03:43:23;101666.47;;;5.11;72.40
72921;BME280;61064;51.654;5.476;2023-03-16T03:45:48;101515.28;;;4.26;72.38
72921;BME280;61064;51.654;5.476;2023-03-16T03:48:13;101658.56;;;5.11;72.81
72921;BME280;61064;51.654;5.476;2023-03-16T03:50:39;101635.06;;;4.96;72.72
72921;BME280;61064;51.654;5.476;2023-03-16T03:53:05;101539.81;;;4.46;72.63
72921;BME280;61064;51.654;5.476;2023-03-16T03:55:31;101507.19;;;4.22;72.73
72921;BME280;61064;51.654;5.476;2023-03-16T03:57:56;101633.34;;;4.97;72.87
72921;BME280;61064;51.654;5.476;2023-03-16T04:00:22;101583.00;;;4.70;72.57
72921;BME280;61064;51.654;5.476;2023-03-16T04:02:48;101647.88;;;5.08;73.01
72921;BME280;61064;51.654;5.476;2023-03-16T04:05:13;101627.13;;;4.95;72.67
72921;BME280;61064;51.654;5.476;2023-03-16T04:07:38;101607.06;;;4.78;73.10
72921;BME280;61064;51.654;5.476;2023-03-16T04:10:05;101621.69;;;4.92;72.90
72921;BME280;61064;51.654;5.476;2023-03-16T04:12:30;101633.41;;;4.98;72.55
72921;BME280;61064;51.654;5.476;2023-03-16T04:14:56;101642.56;;;5.07;73.13
72921;BME280;61064;51.654;5.476;2023-03-16T04:17:21;101591.09;;;4.75;73.22
72921;BME280;61064;51.654;5.476;2023-03-16T04:19:48;101616.34;;;4.90;73.08
72921;BME280;61064;51.654;5.476;2023-03-16T04:22:13;101643.41;;;5.07;72.96
72921;BME280;61064;51.654;5.476;2023-03-16T04:24:38;101591.19;;;4.76;73.21
72921;BME280;61064;51.654;5.476;2023-03-16T04:27:04;101635.47;;;5.06;73.19
72921;BME280;61064;51.654;5.476;2023-03-16T04:29:29;101547.47;;;4.60;73.03
72921;BME280;61064;51.654;5.476;2023-03-16T04:31:56;101592.59;;;4.89;73.13
72921;BME280;61064;51.654;5.476;2023-03-16T04:34:21;101574.63;;;4.80;73.38
72921;BME280;61064;51.654;5.476;2023-03-16T04:36:50;101591.50;;;4.84;72.99
72921;BME280;61064;51.654;5.476;2023-03-16T04:39:17;101573.63;;;4.77;72.95
72921;BME280;61064;51.654;5.476;2023-03-16T04:41:43;101598.81;;;4.91;73.10
72921;BME280;61064;51.654;5.476;2023-03-16T04:44:08;101638.38;;;5.12;73.06
72921;BME280;61064;51.654;5.476;2023-03-16T04:46:34;101595.16;;;4.87;73.19
72921;BME280;61064;51.654;5.476;2023-03-16T04:49:00;101588.22;;;4.89;73.10
72921;BME280;61064;51.654;5.476;2023-03-16T04:51:28;101628.75;;;5.14;73.02
72921;BME280;61064;51.654;5.476;2023-03-16T04:53:53;101627.84;;;5.13;73.09
72921;BME280;61064;51.654;5.476;2023-03-16T04:56:19;101596.25;;;4.92;73.49
72921;BME280;61064;51.654;5.476;2023-03-16T04:58:45;101576.63;;;4.86;73.37
72921;BME280;61064;51.654;5.476;2023-03-16T05:01:10;101603.69;;;5.02;73.31
72921;BME280;61064;51.654;5.476;2023-03-16T05:03:36;101596.25;;;4.92;73.33
72921;BME280;61064;51.654;5.476;2023-03-16T05:06:01;101488.56;;;4.38;73.27
72921;BME280;61064;51.654;5.476;2023-03-16T05:08:26;101589.34;;;4.96;73.41
72921;BME280;61064;51.654;5.476;2023-03-16T05:10:56;101520.28;;;4.62;73.31
72921;BME280;61064;51.654;5.476;2023-03-16T05:13:21;101579.50;;;4.92;73.43
72921;BME280;61064;51.654;5.476;2023-03-16T05:15:46;101459.31;;;4.32;73.37
72921;BME280;61064;51.654;5.476;2023-03-16T05:18:12;101396.22;;;3.92;73.17
72921;BME280;61064;51.654;5.476;2023-03-16T05:20:37;101580.75;;;5.00;73.61
72921;BME280;61064;51.654;5.476;2023-03-16T05:23:02;101562.94;;;4.94;73.35
72921;BME280;61064;51.654;5.476;2023-03-16T05:25:28;101572.59;;;4.94;73.55
72921;BME280;61064;51.654;5.476;2023-03-16T05:27:53;101546.38;;;4.76;73.71
72921;BME280;61064;51.654;5.476;2023-03-16T05:30:19;101604.19;;;5.15;73.74
72921;BME280;61064;51.654;5.476;2023-03-16T05:32:45;101594.28;;;5.09;73.47
72921;BME280;61064;51.654;5.476;2023-03-16T05:35:11;101559.22;;;4.89;73.81
72921;BME280;61064;51.654;5.476;2023-03-16T05:37:38;101526.00;;;4.72;73.81
72921;BME280;61064;51.654;5.476;2023-03-16T05:40:06;101598.84;;;5.13;73.65
72921;BME280;61064;51.654;5.476;2023-03-16T05:42:48;101595.38;;;5.14;73.50
72921;BME280;61064;51.654;5.476;2023-03-16T05:45:15;101590.09;;;5.14;73.80
72921;BME280;61064;51.654;5.476;2023-03-16T05:47:42;101587.47;;;5.14;74.06
72921;BME280;61064;51.654;5.476;2023-03-16T05:50:09;101523.63;;;4.78;73.92
72921;BME280;61064;51.654;5.476;2023-03-16T05:52:36;101549.88;;;4.97;73.81
72921;BME280;61064;51.654;5.476;2023-03-16T05:55:01;101586.69;;;5.17;73.83
72921;BME280;61064;51.654;5.476;2023-03-16T05:57:27;101560.72;;;5.05;73.93
72921;BME280;61064;51.654;5.476;2023-03-16T05:59:53;101558.03;;;5.03;74.27
72921;BME280;61064;51.654;5.476;2023-03-16T06:02:18;101579.72;;;5.19;74.11
72921;BME280;61064;51.654;5.476;2023-03-16T06:04:44;101578.88;;;5.20;74.24
72921;BME280;61064;51.654;5.476;2023-03-16T06:07:09;101585.06;;;5.20;74.32
72921;BME280;61064;51.654;5.476;2023-03-16T06:09:35;101561.66;;;5.07;74.49
72921;BME280;61064;51.654;5.476;2023-03-16T06:12:00;101585.13;;;5.22;74.26
72921;BME280;61064;51.654;5.476;2023-03-16T06:14:25;101493.41;;;4.70;74.65
72921;BME280;61064;51.654;5.476;2023-03-16T06:16:50;101582.56;;;5.23;74.49
72921;BME280;61064;51.654;5.476;2023-03-16T06:19:16;101434.22;;;4.40;74.29
72921;BME280;61064;51.654;5.476;2023-03-16T06:21:41;101491.00;;;4.76;74.76
72921;BME280;61064;51.654;5.476;2023-03-16T06:24:07;101581.00;;;5.28;74.31
72921;BME280;61064;51.654;5.476;2023-03-16T06:26:34;101586.31;;;5.30;74.63
72921;BME280;61064;51.654;5.476;2023-03-16T06:29:02;101502.06;;;4.88;74.73
72921;BME280;61064;51.654;5.476;2023-03-16T06:31:28;101529.09;;;5.05;74.32
72921;BME280;61064;51.654;5.476;2023-03-16T06:33:54;101561.75;;;5.31;74.76
72921;BME280;61064;51.654;5.476;2023-03-16T06:36:19;101579.63;;;5.38;74.53
72921;BME280;61064;51.654;5.476;2023-03-16T06:38:45;101558.94;;;5.26;74.71
72921;BME280;61064;51.654;5.476;2023-03-16T06:41:11;101548.22;;;5.22;74.52
72921;BME280;61064;51.654;5.476;2023-03-16T06:43:36;101584.34;;;5.47;74.66
72921;BME280;61064;51.654;5.476;2023-03-16T06:46:02;101575.66;;;5.49;74.50
72921;BME280;61064;51.654;5.476;2023-03-16T06:48:28;101536.75;;;5.21;74.57
72921;BME280;61064;51.654;5.476;2023-03-16T06:50:53;101582.75;;;5.50;74.60
72921;BME280;61064;51.654;5.476;2023-03-16T06:53:19;101544.19;;;5.31;74.48
72921;BME280;61064;51.654;5.476;2023-03-16T06:55:46;101541.53;;;5.31;74.43
72921;BME280;61064;51.654;5.476;2023-03-16T06:58:11;101422.91;;;4.65;74.30
72921;BME280;61064;51.654;5.476;2023-03-16T07:00:37;101534.66;;;5.35;74.73
72921;BME280;61064;51.654;5.476;2023-03-16T07:03:02;101538.13;;;5.34;74.84
72921;BME280;61064;51.654;5.476;2023-03-16T07:05:53;101567.13;;;5.56;74.70
72921;BME280;61064;51.654;5.476;2023-03-16T07:08:19;101546.38;;;5.43;74.73
72921;BME280;61064;51.654;5.476;2023-03-16T07:10:44;101555.78;;;5.59;74.83
72921;BME280;61064;51.654;5.476;2023-03-16T07:13:09;101541.34;;;5.49;74.92
72921;BME280;61064;51.654;5.476;2023-03-16T07:15:35;101549.38;;;5.52;75.22
72921;BME280;61064;51.654;5.476;2023-03-16T07:18:01;101533.38;;;5.48;74.90
72921;BME280;61064;51.654;5.476;2023-03-16T07:20:26;101510.91;;;5.35;74.95
72921;BME280;61064;51.654;5.476;2023-03-16T07:22:54;101489.69;;;5.32;74.84
72921;BME280;61064;51.654;5.476;2023-03-16T07:25:19;101498.91;;;5.43;74.63
72921;BME280;61064;51.654;5.476;2023-03-16T07:27:45;101545.84;;;5.75;75.09
72921;BME280;61064;51.654;5.476;2023-03-16T07:30:12;101532.56;;;5.72;75.10
72921;BME280;61064;51.654;5.476;2023-03-16T07:32:39;101504.88;;;5.61;74.97
72921;BME280;61064;51.654;5.476;2023-03-16T07:35:06;101513.00;;;5.67;75.28
72921;BME280;61064;51.654;5.476;2023-03-16T07:37:32;101509.41;;;5.65;75.19
72921;BME280;61064;51.654;5.476;2023-03-16T07:39:59;101532.31;;;5.89;75.28
72921;BME280;61064;51.654;5.476;2023-03-16T07:42:25;101494.78;;;5.75;75.46
72921;BME280;61064;51.654;5.476;2023-03-16T07:44:50;101518.84;;;5.82;75.47
72921;BME280;61064;51.654;5.476;2023-03-16T07:47:16;101537.88;;;5.96;75.39
72921;BME280;61064;51.654;5.476;2023-03-16T07:49:42;101547.94;;;6.08;75.22
72921;BME280;61064;51.654;5.476;2023-03-16T07:52:09;101555.09;;;6.10;75.47
72921;BME280;61064;51.654;5.476;2023-03-16T07:54:39;101508.81;;;5.96;75.15
72921;BME280;61064;51.654;5.476;2023-03-16T07:57:05;101518.50;;;5.97;75.17
72921;BME280;61064;51.654;5.476;2023-03-16T07:59:31;101525.88;;;6.06;75.35
72921;BME280;61064;51.654;5.476;2023-03-16T08:01:56;101519.75;;;6.07;75.35
72921;BME280;61064;51.654;5.476;2023-03-16T08:04:21;101538.84;;;6.23;75.23
72921;BME280;61064;51.654;5.476;2023-03-16T08:06:47;101546.03;;;6.28;75.37
72921;BME280;61064;51.654;5.476;2023-03-16T08:09:12;101530.94;;;6.25;75.14
72921;BME280;61064;51.654;5.476;2023-03-16T08:11:38;101520.38;;;6.25;75.35
72921;BME280;61064;51.654;5.476;2023-03-16T08:14:04;101533.19;;;6.38;75.36
72921;BME280;61064;51.654;5.476;2023-03-16T08:16:30;101444.25;;;5.88;75.04
72921;BME280;61064;51.654;5.476;2023-03-16T08:18:56;101536.09;;;6.46;75.20
72921;BME280;61064;51.654;5.476;2023-03-16T08:21:23;101533.47;;;6.47;75.03
72921;BME280;61064;51.654;5.476;2023-03-16T08:23:48;101545.28;;;6.57;74.83
72921;BME280;61064;51.654;5.476;2023-03-16T08:26:21;101500.69;;;6.41;74.87
72921;BME280;61064;51.654;5.476;2023-03-16T08:28:50;101537.72;;;6.67;74.44
72921;BME280;61064;51.654;5.476;2023-03-16T08:31:17;101486.56;;;6.40;74.51
72921;BME280;61064;51.654;5.476;2023-03-16T08:33:44;101503.00;;;6.58;74.17
72921;BME280;61064;51.654;5.476;2023-03-16T08:36:12;101506.41;;;6.54;74.24
72921;BME280;61064;51.654;5.476;2023-03-16T08:38:38;101550.53;;;6.82;74.10
72921;BME280;61064;51.654;5.476;2023-03-16T08:41:07;101543.56;;;6.86;74.29
72921;BME280;61064;51.654;5.476;2023-03-16T08:43:33;101517.47;;;6.69;74.05
72921;BME280;61064;51.654;5.476;2023-03-16T08:45:58;101543.88;;;6.95;74.02
72921;BME280;61064;51.654;5.476;2023-03-16T08:48:26;101531.44;;;6.91;74.09
72921;BME280;61064;51.654;5.476;2023-03-16T08:50:53;101549.53;;;7.05;73.73
72921;BME280;61064;51.654;5.476;2023-03-16T08:53:18;101507.44;;;6.86;73.42
72921;BME280;61064;51.654;5.476;2023-03-16T08:55:45;101525.78;;;7.08;73.57
72921;BME280;61064;51.654;5.476;2023-03-16T08:58:11;101524.25;;;7.15;73.58
72921;BME280;61064;51.654;5.476;2023-03-16T09:00:37;101484.22;;;7.04;73.44
72921;BME280;61064;51.654;5.476;2023-03-16T09:03:04;101475.53;;;7.08;73.09
72921;BME280;61064;51.654;5.476;2023-03-16T09:05:30;101486.34;;;7.16;72.85
72921;BME280;61064;51.654;5.476;2023-03-16T09:07:56;101508.03;;;7.33;72.69
72921;BME280;61064;51.654;5.476;2023-03-16T09:10:22;101456.09;;;7.08;72.48
72921;BME280;61064;51.654;5.476;2023-03-16T09:12:49;101493.22;;;7.39;72.56
72921;BME280;61064;51.654;5.476;2023-03-16T09:15:16;101462.59;;;7.19;72.46
72921;BME280;61064;51.654;5.476;2023-03-16T09:17:42;101474.53;;;7.33;72.37
72921;BME280;61064;51.654;5.476;2023-03-16T09:20:09;101501.25;;;7.42;72.14
72921;BME280;61064;51.654;5.476;2023-03-16T09:22:36;101501.66;;;7.56;71.80
72921;BME280;61064;51.654;5.476;2023-03-16T09:25:03;101535.44;;;7.65;71.98
72921;BME280;61064;51.654;5.476;2023-03-16T09:27:31;101466.66;;;7.36;71.80
72921;BME280;61064;51.654;5.476;2023-03-16T09:29:57;101506.44;;;7.69;72.13
72921;BME280;61064;51.654;5.476;2023-03-16T09:32:25;101504.13;;;7.80;71.67
72921;BME280;61064;51.654;5.476;2023-03-16T09:34:51;101470.19;;;7.67;71.67
72921;BME280;61064;51.654;5.476;2023-03-16T09:37:17;101440.81;;;7.58;71.46
72921;BME280;61064;51.654;5.476;2023-03-16T09:39:42;101479.75;;;7.93;71.41
72921;BME280;61064;51.654;5.476;2023-03-16T09:42:35;101506.09;;;8.20;71.25
72921;BME280;61064;51.654;5.476;2023-03-16T09:45:35;101494.94;;;8.31;71.06
72921;BME280;61064;51.654;5.476;2023-03-16T09:48:03;101466.22;;;8.15;70.71
72921;BME280;61064;51.654;5.476;2023-03-16T09:50:36;101438.63;;;8.07;70.08
72921;BME280;61064;51.654;5.476;2023-03-16T09:55:38;101459.84;;;8.42;70.06
72921;BME280;61064;51.654;5.476;2023-03-16T09:58:13;101482.53;;;8.65;70.00
72921;BME280;61064;51.654;5.476;2023-03-16T10:00:46;101438.97;;;8.55;69.80
72921;BME280;61064;51.654;5.476;2023-03-16T10:03:29;101484.16;;;8.96;69.65
72921;BME280;61064;51.654;5.476;2023-03-16T10:06:00;101420.84;;;8.73;69.38
72921;BME280;61064;51.654;5.476;2023-03-16T10:08:40;101476.72;;;9.20;68.99
72921;BME280;61064;51.654;5.476;2023-03-16T10:13:52;101422.47;;;9.06;68.56
72921;BME280;61064;51.654;5.476;2023-03-16T10:16:32;101466.69;;;9.47;68.64
72921;BME280;61064;51.654;5.476;2023-03-16T10:19:04;101465.38;;;9.68;68.35
72921;BME280;61064;51.654;5.476;2023-03-16T10:21:38;101401.34;;;9.55;67.54
72921;BME280;61064;51.654;5.476;2023-03-16T10:24:12;101431.19;;;9.86;67.42
72921;BME280;61064;51.654;5.476;2023-03-16T10:26:41;101400.94;;;9.81;67.03
72921;BME280;61064;51.654;5.476;2023-03-16T10:29:12;101450.44;;;10.21;66.71
72921;BME280;61064;51.654;5.476;2023-03-16T10:31:40;101454.25;;;10.35;66.50
72921;BME280;61064;51.654;5.476;2023-03-16T10:34:06;101393.47;;;10.10;66.40
72921;BME280;61064;51.654;5.476;2023-03-16T10:36:34;101451.00;;;10.53;65.91
72921;BME280;61064;51.654;5.476;2023-03-16T10:39:03;101452.06;;;10.64;65.54
72921;BME280;61064;51.654;5.476;2023-03-16T10:41:38;101455.00;;;10.82;65.18
72921;BME280;61064;51.654;5.476;2023-03-16T10:44:16;101456.97;;;10.95;64.60
72921;BME280;61064;51.654;5.476;2023-03-16T10:46:47;101450.88;;;11.04;64.43
72921;BME280;61064;51.654;5.476;2023-03-16T10:49:22;101428.84;;;11.15;64.68
72921;BME280;61064;51.654;5.476;2023-03-16T10:51:49;101422.84;;;11.30;64.55
72921;BME280;61064;51.654;5.476;2023-03-16T10:54:26;101431.97;;;11.50;63.76
72921;BME280;61064;51.654;5.476;2023-03-16T10:56:53;101415.94;;;11.47;63.26
72921;BME280;61064;51.654;5.476;2023-03-16T10:59:31;101395.59;;;11.55;63.10
72921;BME280;61064;51.654;5.476;2023-03-16T11:02:00;101347.44;;;11.36;62.65
72921;BME280;61064;51.654;5.476;2023-03-16T11:04:30;101379.59;;;11.52;62.46
72921;BME280;61064;51.654;5.476;2023-03-16T11:06:56;101403.84;;;11.77;61.93
72921;BME280;61064;51.654;5.476;2023-03-16T11:09:26;101318.03;;;11.28;61.56
72921;BME280;61064;51.654;5.476;2023-03-16T11:11:57;101396.75;;;11.77;61.75
72921;BME280;61064;51.654;5.476;2023-03-16T11:14:26;101406.59;;;11.81;61.51
72921;BME280;61064;51.654;5.476;2023-03-16T11:17:05;101385.19;;;11.74;61.08
72921;BME280;61064;51.654;5.476;2023-03-16T11:19:52;101398.66;;;11.89;61.17
72921;BME280;61064;51.654;5.476;2023-03-16T11:22:22;101396.91;;;11.91;60.99
72921;BME280;61064;51.654;5.476;2023-03-16T11:25:07;101384.56;;;12.02;60.35
72921;BME280;61064;51.654;5.476;2023-03-16T11:27:40;101373.97;;;12.08;60.87
72921;BME280;61064;51.654;5.476;2023-03-16T11:30:42;101378.44;;;12.14;60.66
72921;BME280;61064;51.654;5.476;2023-03-16T11:33:12;101375.88;;;12.26;60.69
72921;BME280;61064;51.654;5.476;2023-03-16T11:36:12;101376.81;;;12.32;60.26
72921;BME280;61064;51.654;5.476;2023-03-16T11:44:29;101364.47;;;12.46;59.90
72921;BME280;61064;51.654;5.476;2023-03-16T11:50:06;101321.72;;;12.39;59.15
72921;BME280;61064;51.654;5.476;2023-03-16T11:53:29;101349.41;;;12.53;58.52
72921;BME280;61064;51.654;5.476;2023-03-16T11:55:56;101350.31;;;12.57;58.95
72921;BME280;61064;51.654;5.476;2023-03-16T12:01:22;101346.78;;;12.64;58.26
72921;BME280;61064;51.654;5.476;2023-03-16T12:07:01;101291.53;;;12.49;58.13
72921;BME280;61064;51.654;5.476;2023-03-16T12:12:38;101325.59;;;12.93;57.78
72921;BME280;61064;51.654;5.476;2023-03-16T12:15:31;101324.72;;;13.01;57.65
72921;BME280;61064;51.654;5.476;2023-03-16T12:18:02;101273.00;;;12.82;57.13
72921;BME280;61064;51.654;5.476;2023-03-16T12:20:45;101317.69;;;13.14;57.12
72921;BME280;61064;51.654;5.476;2023-03-16T12:23:17;101280.28;;;13.18;56.67
72921;BME280;61064;51.654;5.476;2023-03-16T12:25:47;101284.78;;;13.38;56.45
72921;BME280;61064;51.654;5.476;2023-03-16T12:28:25;101278.56;;;13.51;56.51
72921;BME280;61064;51.654;5.476;2023-03-16T12:39:14;101255.38;;;14.16;54.94
72921;BME280;61064;51.654;5.476;2023-03-16T12:44:47;101242.84;;;14.34;53.52
72921;BME280;61064;51.654;5.476;2023-03-16T12:49:51;101220.63;;;14.07;53.17
72921;BME280;61064;51.654;5.476;2023-03-16T12:52:17;101222.38;;;14.24;53.54
72921;BME280;61064;51.654;5.476;2023-03-16T12:54:49;101236.63;;;14.41;53.35
72921;BME280;61064;51.654;5.476;2023-03-16T12:57:23;101193.78;;;14.35;53.08
72921;BME280;61064;51.654;5.476;2023-03-16T12:59:55;101233.88;;;14.62;53.11
72921;BME280;61064;51.654;5.476;2023-03-16T13:02:29;101225.81;;;14.70;52.48
72921;BME280;61064;51.654;5.476;2023-03-16T13:05:12;101214.22;;;14.69;52.16
72921;BME280;61064;51.654;5.476;2023-03-16T13:07:46;101232.03;;;14.79;51.65
72921;BME280;61064;51.654;5.476;2023-03-16T13:10:14;101207.94;;;14.72;51.89
72921;BME280;61064;51.654;5.476;2023-03-16T13:12:42;101207.00;;;14.83;51.57
72921;BME280;61064;51.654;5.476;2023-03-16T13:17:48;101207.81;;;14.96;51.12
72921;BME280;61064;51.654;5.476;2023-03-16T13:20:32;101181.09;;;14.82;51.11
72921;BME280;61064;51.654;5.476;2023-03-16T13:25:44;101182.00;;;14.84;50.95
72921;BME280;61064;51.654;5.476;2023-03-16T13:28:14;101189.16;;;14.81;50.16
72921;BME280;61064;51.654;5.476;2023-03-16T13:30:47;101197.13;;;14.88;49.88
72921;BME280;61064;51.654;5.476;2023-03-16T13:33:22;101198.91;;;14.92;49.97
72921;BME280;61064;51.654;5.476;2023-03-16T13:35:49;101194.44;;;14.96;49.88
72921;BME280;61064;51.654;5.476;2023-03-16T13:38:17;101113.41;;;14.56;49.66
72921;BME280;61064;51.654;5.476;2023-03-16T13:40:47;101123.19;;;14.63;49.74
72921;BME280;61064;51.654;5.476;2023-03-16T13:43:14;101164.09;;;14.88;49.70
72921;BME280;61064;51.654;5.476;2023-03-16T13:45:41;101126.72;;;14.67;49.40
72921;BME280;61064;51.654;5.476;2023-03-16T13:48:14;101134.69;;;14.79;49.37
72921;BME280;61064;51.654;5.476;2023-03-16T13:50:41;101154.22;;;14.97;49.13
72921;BME280;61064;51.654;5.476;2023-03-16T13:53:17;101163.97;;;15.08;48.81
72921;BME280;61064;51.654;5.476;2023-03-16T13:55:46;101163.09;;;15.09;48.83